M S San Francisco — WZC3886 — position and weather

sailwx.info

Track history (hours):
 
Tides and Currents Weather Stations Pressure Air Temp Water Temp Dewpoint Dewpoint Depression Visibility Wind Speed Wind Dir Waves Ship Positions

M S San Francisco

Owner: GOLDEN GATE BRIDGE HWY & TRANSP DISTRICT, LARKSPUR, CA. More information available from US FCC via Universal Licensing System and Coast Guard Vessel Documentation Center.

Last reported at 2017-Jan-22 00:09 UTC. Time now 2017-Jan-24 17:22 UTC.
Position N 37°47' W 122°17'.

Length 58 m.

Type: Passenger vessel. MMSI: 366963980.

Date/timePositionNaut miles runAvg speedWind from/ knotsBaromVisibWave heightAir tempDewpointWater temp
2017-Jan-22 00:09N 37°47' W 122°17'5 7.7
2017-Jan-21 23:34N 37°49' W 122°23'10 9.7
2017-Jan-21 22:33N 37°57' W 122°31'0 0.0
2017-Jan-21 21:33N 37°57' W 122°31'0 0.0
2017-Jan-19 18:10N 37°57' W 122°31'0 0.5
2017-Jan-19 17:30N 37°57' W 122°30'  
2017-Jan-17 03:27N 37°57' W 122°31'1011.2
2017-Jan-17 02:33N 37°49' W 122°23'5 5.1
2017-Jan-17 01:33N 37°51' W 122°29'5 5.4
2017-Jan-17 00:33N 37°48' W 122°24'5 5.5
2017-Jan-16 23:33N 37°51' W 122°29'5 5.2
2017-Jan-16 22:33N 37°48' W 122°23'1 0.6
2017-Jan-16 21:34N 37°49' W 122°23'5 4.9
2017-Jan-16 20:33N 37°51' W 122°29'2 2.5
2017-Jan-16 19:33N 37°50' W 122°26'3 3.0
2017-Jan-16 18:34N 37°48' W 122°24'11 0.7
2017-Jan-16 04:24N 37°57' W 122°31'911.0
2017-Jan-16 03:33N 37°49' W 122°24'4 4.5
2017-Jan-16 02:33N 37°51' W 122°29'5 5.4
2017-Jan-16 01:33N 37°48' W 122°24'1010.5
2017-Jan-16 00:34N 37°57' W 122°30'1010.5
2017-Jan-15 23:33N 37°48' W 122°24'0 0.0
2017-Jan-15 22:33N 37°48' W 122°24'1110.5
2017-Jan-15 21:33N 37°57' W 122°31'1110.3
2017-Jan-15 20:32N 37°48' W 122°24'1110.0
2017-Jan-15 19:29N 37°57' W 122°31'0 0.0
2017-Jan-15 03:31N 37°57' W 122°31'1110.9
2017-Jan-15 02:33N 37°48' W 122°24'5 5.4
2017-Jan-15 01:33N 37°51' W 122°29'5 5.4
2017-Jan-15 00:33N 37°48' W 122°24'5 5.0
2017-Jan-14 23:33N 37°51' W 122°28'4 3.8
2017-Jan-14 22:33N 37°49' W 122°24'1 1.1
2017-Jan-14 21:33N 37°48' W 122°23'5 5.2
2017-Jan-14 20:33N 37°51' W 122°29'3 2.8
2017-Jan-14 19:33N 37°50' W 122°26'3 2.7
2017-Jan-14 18:34N 37°48' W 122°24'1110.5
2017-Jan-14 17:33N 37°57' W 122°31'0 0.0
2017-Jan-14 05:33N 37°57' W 122°31'7 6.9
2017-Jan-14 04:33N 37°51' W 122°26'2 2.0
2017-Jan-14 03:34N 37°51' W 122°29'3 0.8
2017-Jan-13 23:34N 37°50' W 122°25'3 2.8
2017-Jan-13 22:33N 37°48' W 122°24'5 5.4
2017-Jan-13 21:33N 37°51' W 122°29'4 3.9
2017-Jan-13 20:33N 37°49' W 122°24'2 1.8
2017-Jan-13 19:34N 37°48' W 122°24'5 5.4
2017-Jan-13 18:34N 37°51' W 122°29'5 5.4
2017-Jan-13 17:33N 37°48' W 122°24'3 2.6
2017-Jan-13 16:34N 37°50' W 122°25'2 2.4
2017-Jan-13 15:34N 37°48' W 122°23'9 9.4
2017-Jan-13 14:33N 37°56' W 122°30'1 0.1
2017-Jan-13 05:33N 37°57' W 122°30'6 5.8
2017-Jan-13 04:34N 37°51' W 122°27'3 2.6
2017-Jan-13 03:34N 37°50' W 122°25'2 2.3
2017-Jan-13 02:34N 37°48' W 122°24'0 0.1
2017-Jan-13 01:33N 37°48' W 122°24'5 5.4
2017-Jan-13 00:33N 37°51' W 122°29'3 3.0
2017-Jan-12 23:33N 37°50' W 122°25'3 2.7
2017-Jan-12 22:33N 37°48' W 122°24'5 5.4
2017-Jan-12 21:33N 37°51' W 122°29'4 4.1
2017-Jan-12 20:34N 37°49' W 122°24'2 1.6
2017-Jan-12 19:33N 37°48' W 122°24'5 5.5
2017-Jan-12 18:33N 37°51' W 122°29'5 5.4
2017-Jan-12 17:33N 37°48' W 122°24'2 2.5
2017-Jan-12 16:33N 37°50' W 122°25'2 2.5
2017-Jan-12 15:34N 37°48' W 122°23'9 9.3
2017-Jan-12 14:33N 37°56' W 122°29'1 0.1
2017-Jan-12 05:33N 37°57' W 122°31'6 5.6
2017-Jan-12 04:33N 37°51' W 122°29'2 2.0
2017-Jan-12 03:34N 37°50' W 122°26'3 3.5
2017-Jan-12 02:33N 37°48' W 122°23'0 0.0
2017-Jan-12 01:34N 37°48' W 122°23'5 5.5
2017-Jan-12 00:34N 37°51' W 122°29'  
Track history (hours):
 
Tides and Currents Weather Stations Pressure Air Temp Water Temp Dewpoint Dewpoint Depression Visibility Wind Speed Wind Dir Waves Ship Positions

M S San Francisco

Owner: GOLDEN GATE BRIDGE HWY & TRANSP DISTRICT, LARKSPUR, CA. More information available from US FCC via Universal Licensing System and Coast Guard Vessel Documentation Center.

Last reported at 2017-Jan-22 00:09 UTC. Time now 2017-Jan-24 17:22 UTC.
Position N 37°47' W 122°17'.

Length 58 m.

Type: Passenger vessel. MMSI: 366963980.

Date/timePositionNaut miles runAvg speedWind from/ knotsBaromVisibWave heightAir tempDewpointWater temp
2017-Jan-22 00:09N 37°47' W 122°17'5 7.7
2017-Jan-21 23:34N 37°49' W 122°23'10 9.7
2017-Jan-21 22:33N 37°57' W 122°31'0 0.0
2017-Jan-21 21:33N 37°57' W 122°31'0 0.0
2017-Jan-19 18:10N 37°57' W 122°31'0 0.5
2017-Jan-19 17:30N 37°57' W 122°30'  
2017-Jan-17 03:27N 37°57' W 122°31'1011.2
2017-Jan-17 02:33N 37°49' W 122°23'5 5.1
2017-Jan-17 01:33N 37°51' W 122°29'5 5.4
2017-Jan-17 00:33N 37°48' W 122°24'5 5.5
2017-Jan-16 23:33N 37°51' W 122°29'5 5.2
2017-Jan-16 22:33N 37°48' W 122°23'1 0.6
2017-Jan-16 21:34N 37°49' W 122°23'5 4.9
2017-Jan-16 20:33N 37°51' W 122°29'2 2.5
2017-Jan-16 19:33N 37°50' W 122°26'3 3.0
2017-Jan-16 18:34N 37°48' W 122°24'11 0.7
2017-Jan-16 04:24N 37°57' W 122°31'911.0
2017-Jan-16 03:33N 37°49' W 122°24'4 4.5
2017-Jan-16 02:33N 37°51' W 122°29'5 5.4
2017-Jan-16 01:33N 37°48' W 122°24'1010.5
2017-Jan-16 00:34N 37°57' W 122°30'1010.5
2017-Jan-15 23:33N 37°48' W 122°24'0 0.0
2017-Jan-15 22:33N 37°48' W 122°24'1110.5
2017-Jan-15 21:33N 37°57' W 122°31'1110.3
2017-Jan-15 20:32N 37°48' W 122°24'1110.0
2017-Jan-15 19:29N 37°57' W 122°31'0 0.0
2017-Jan-15 03:31N 37°57' W 122°31'1110.9
2017-Jan-15 02:33N 37°48' W 122°24'5 5.4
2017-Jan-15 01:33N 37°51' W 122°29'5 5.4
2017-Jan-15 00:33N 37°48' W 122°24'5 5.0
2017-Jan-14 23:33N 37°51' W 122°28'4 3.8
2017-Jan-14 22:33N 37°49' W 122°24'1 1.1
2017-Jan-14 21:33N 37°48' W 122°23'5 5.2
2017-Jan-14 20:33N 37°51' W 122°29'3 2.8
2017-Jan-14 19:33N 37°50' W 122°26'3 2.7
2017-Jan-14 18:34N 37°48' W 122°24'1110.5
2017-Jan-14 17:33N 37°57' W 122°31'0 0.0
2017-Jan-14 05:33N 37°57' W 122°31'7 6.9
2017-Jan-14 04:33N 37°51' W 122°26'2 2.0
2017-Jan-14 03:34N 37°51' W 122°29'3 0.8
2017-Jan-13 23:34N 37°50' W 122°25'3 2.8
2017-Jan-13 22:33N 37°48' W 122°24'5 5.4
2017-Jan-13 21:33N 37°51' W 122°29'4 3.9
2017-Jan-13 20:33N 37°49' W 122°24'2 1.8
2017-Jan-13 19:34N 37°48' W 122°24'5 5.4
2017-Jan-13 18:34N 37°51' W 122°29'5 5.4
2017-Jan-13 17:33N 37°48' W 122°24'3 2.6
2017-Jan-13 16:34N 37°50' W 122°25'2 2.4
2017-Jan-13 15:34N 37°48' W 122°23'9 9.4
2017-Jan-13 14:33N 37°56' W 122°30'1 0.1
2017-Jan-13 05:33N 37°57' W 122°30'6 5.8
2017-Jan-13 04:34N 37°51' W 122°27'3 2.6
2017-Jan-13 03:34N 37°50' W 122°25'2 2.3
2017-Jan-13 02:34N 37°48' W 122°24'0 0.1
2017-Jan-13 01:33N 37°48' W 122°24'5 5.4
2017-Jan-13 00:33N 37°51' W 122°29'3 3.0
2017-Jan-12 23:33N 37°50' W 122°25'3 2.7
2017-Jan-12 22:33N 37°48' W 122°24'5 5.4
2017-Jan-12 21:33N 37°51' W 122°29'4 4.1
2017-Jan-12 20:34N 37°49' W 122°24'2 1.6
2017-Jan-12 19:33N 37°48' W 122°24'5 5.5
2017-Jan-12 18:33N 37°51' W 122°29'5 5.4
2017-Jan-12 17:33N 37°48' W 122°24'2 2.5
2017-Jan-12 16:33N 37°50' W 122°25'2 2.5
2017-Jan-12 15:34N 37°48' W 122°23'9 9.3
2017-Jan-12 14:33N 37°56' W 122°29'1 0.1
2017-Jan-12 05:33N 37°57' W 122°31'6 5.6
2017-Jan-12 04:33N 37°51' W 122°29'2 2.0
2017-Jan-12 03:34N 37°50' W 122°26'3 3.5
2017-Jan-12 02:33N 37°48' W 122°23'0 0.0
2017-Jan-12 01:34N 37°48' W 122°23'5 5.5
2017-Jan-12 00:34N 37°51' W 122°29'  

Dump ship's entire track history